Temp: 14.0°C   Baro: 1018.4mb
  Wind: 0.9mph   Dir: W (278°)
  Rain: 0.0mm (0.0mm/hr)
  Solar: 0W/m2  Hum: 84%
 
Bath Spa Weather Station Historical Data
Daily Summary for July 12, 2019 Units:  Both    English   Metric
Daily Weekly Monthly Yearly Custom
  High: Low: Average:
Temperature: 71.3 °F /  21.8 °C 55.9 °F /  13.3 °C 62.8 °F /  17.1 °C
Dew Point: 61.3 °F /  16.3 °C 53.6 °F /  12 °C 57.8 °F /  14.3 °C
Humidity: 94% 67.8% 84%
Wind Speed: 12.4mph /  20km/h - 4.3mph /  6.9km/h
Wind Gust: 20mph /  32.2km/h - -
Wind- - West
Pressure: 30.39 in /  1029 hPa 30.24 in /  1023.9 hPa -
Precipitation: 0.01 in /  0.25 mm    
Historical Graphs
 
 
Tabular Data for July 12, 2019
Time Temperature Dew Point Pressure Wind Wind Speed Wind Gust Humidity Rainfall Rate (Hourly) solar
00:04 57.9 °F /  14.4 °C 55.2 °F /  12.9 °C 30.24in /  1023.9hPa WNW 0.5mph /  0.8km/h 3mph /  4.8km/h 91% 0.00in /  0mm 0 W/m2
00:09 57.9 °F /  14.4 °C 55.2 °F /  12.9 °C 30.24in /  1023.9hPa WNW 0.1mph /  0.2km/h 1mph /  1.6km/h 91% 0.00in /  0mm 0 W/m2
00:14 58 °F /  14.4 °C 55.3 °F /  12.9 °C 30.24in /  1023.9hPa WNW 0.8mph /  1.3km/h 4mph /  6.4km/h 91% 0.00in /  0mm 0 W/m2
00:19 58.1 °F /  14.5 °C 55.4 °F /  13 °C 30.24in /  1023.9hPa WNW 0.3mph /  0.5km/h 4mph /  6.4km/h 91% 0.00in /  0mm 0 W/m2
00:24 58.1 °F /  14.5 °C 55.4 °F /  13 °C 30.24in /  1023.9hPa WNW 1.1mph /  1.8km/h 3mph /  4.8km/h 91% 0.00in /  0mm 0 W/m2
00:29 58.1 °F /  14.5 °C 55.4 °F /  13 °C 30.24in /  1023.9hPa WNW 0.4mph /  0.6km/h 2mph /  3.2km/h 91% 0.00in /  0mm 0 W/m2
00:34 58.1 °F /  14.5 °C 55.4 °F /  13 °C 30.24in /  1023.9hPa WNW 0.8mph /  1.3km/h 3mph /  4.8km/h 91% 0.00in /  0mm 0 W/m2
00:39 58.2 °F /  14.6 °C 55.5 °F /  13.1 °C 30.24in /  1023.9hPa WNW 0.8mph /  1.3km/h 3mph /  4.8km/h 91% 0.00in /  0mm 0 W/m2
00:44 58.3 °F /  14.6 °C 55.6 °F /  13.1 °C 30.24in /  1023.9hPa WNW 1.3mph /  2.1km/h 4mph /  6.4km/h 91% 0.00in /  0mm 0 W/m2
00:49 58.3 °F /  14.6 °C 55.6 °F /  13.1 °C 30.24in /  1023.9hPa WNW 1mph /  1.6km/h 3mph /  4.8km/h 91% 0.00in /  0mm 0 W/m2
00:54 58.3 °F /  14.6 °C 55.6 °F /  13.1 °C 30.24in /  1023.9hPa WNW 1.2mph /  1.9km/h 3mph /  4.8km/h 91% 0.00in /  0mm 0 W/m2
00:59 58.3 °F /  14.6 °C 55.6 °F /  13.1 °C 30.24in /  1023.9hPa WNW 1mph /  1.6km/h 3mph /  4.8km/h 91% 0.00in /  0mm 0 W/m2
01:04 58.2 °F /  14.6 °C 55.5 °F /  13.1 °C 30.24in /  1023.9hPa WNW 1mph /  1.6km/h 3mph /  4.8km/h 91% 0.00in /  0mm 0 W/m2
01:09 58.2 °F /  14.6 °C 55.5 °F /  13.1 °C 30.24in /  1023.9hPa WNW 0.8mph /  1.3km/h 3mph /  4.8km/h 91% 0.00in /  0mm 0 W/m2
01:14 58.3 °F /  14.6 °C 55.6 °F /  13.1 °C 30.24in /  1023.9hPa WNW 0.9mph /  1.4km/h 3mph /  4.8km/h 91% 0.00in /  0mm 0 W/m2
01:19 58.2 °F /  14.6 °C 55.5 °F /  13.1 °C 30.24in /  1023.9hPa WNW 0.8mph /  1.3km/h 3mph /  4.8km/h 91% 0.00in /  0mm 0 W/m2
01:24 58.1 °F /  14.5 °C 55.4 °F /  13 °C 30.25in /  1024.3hPa WNW 1.5mph /  2.4km/h 3mph /  4.8km/h 91% 0.00in /  0mm 0 W/m2
01:29 58.1 °F /  14.5 °C 55.4 °F /  13 °C 30.25in /  1024.3hPa WNW 2.3mph /  3.7km/h 5mph /  8km/h 91% 0.00in /  0mm 0 W/m2
01:34 58 °F /  14.4 °C 55.3 °F /  12.9 °C 30.25in /  1024.3hPa WNW 1.4mph /  2.3km/h 5mph /  8km/h 91% 0.00in /  0mm 0 W/m2
01:39 57.8 °F /  14.3 °C 55.2 °F /  12.9 °C 30.25in /  1024.3hPa WNW 0.9mph /  1.4km/h 5mph /  8km/h 91% 0.00in /  0mm 0 W/m2
01:44 57.7 °F /  14.3 °C 55.2 °F /  12.9 °C 30.25in /  1024.3hPa WNW 0.4mph /  0.6km/h 5mph /  8km/h 91% 0.00in /  0mm 0 W/m2
01:49 57.6 °F /  14.2 °C 55 °F /  12.8 °C 30.25in /  1024.3hPa WNW 0.3mph /  0.5km/h 3mph /  4.8km/h 91% 0.00in /  0mm 0 W/m2
01:54 57.4 °F /  14.1 °C 54.8 °F /  12.7 °C 30.25in /  1024.3hPa WNW 0.4mph /  0.6km/h 2mph /  3.2km/h 91% 0.00in /  0mm 0 W/m2
01:59 57.2 °F /  14 °C 54.7 °F /  12.6 °C 30.25in /  1024.3hPa WNW 0.6mph /  1km/h 2mph /  3.2km/h 91% 0.00in /  0mm 0 W/m2
02:04 57.1 °F /  13.9 °C 54.6 °F /  12.6 °C 30.26in /  1024.6hPa WNW 0.5mph /  0.8km/h 2mph /  3.2km/h 91% 0.00in /  0mm 0 W/m2
02:09 56.8 °F /  13.8 °C 54.3 °F /  12.4 °C 30.25in /  1024.3hPa WNW 0.6mph /  1km/h 2mph /  3.2km/h 91% 0.00in /  0mm 0 W/m2
02:14 56.7 °F /  13.7 °C 54.1 °F /  12.3 °C 30.25in /  1024.3hPa WNW 0.4mph /  0.6km/h 2mph /  3.2km/h 91% 0.00in /  0mm 0 W/m2
02:19 56.6 °F /  13.7 °C 54.1 °F /  12.3 °C 30.25in /  1024.3hPa WNW 1.2mph /  1.9km/h 3mph /  4.8km/h 91.6% 0.00in /  0mm 0 W/m2
02:24 56.3 °F /  13.5 °C 54 °F /  12.2 °C 30.25in /  1024.3hPa WNW 1.1mph /  1.8km/h 3mph /  4.8km/h 92% 0.00in /  0mm 0 W/m2
02:29 56.3 °F /  13.5 °C 54 °F /  12.2 °C 30.26in /  1024.6hPa WNW 0.4mph /  0.6km/h 3mph /  4.8km/h 92% 0.00in /  0mm 0 W/m2
02:34 56.2 °F /  13.4 °C 53.9 °F /  12.2 °C 30.26in /  1024.6hPa WNW 0.4mph /  0.6km/h 2mph /  3.2km/h 92% 0.00in /  0mm 0 W/m2
02:39 56.2 °F /  13.4 °C 53.9 °F /  12.2 °C 30.26in /  1024.6hPa WNW 0.3mph /  0.5km/h 2mph /  3.2km/h 92% 0.00in /  0mm 0 W/m2
02:44 56.1 °F /  13.4 °C 53.8 °F /  12.1 °C 30.26in /  1024.6hPa WNW 1mph /  1.6km/h 3mph /  4.8km/h 92% 0.00in /  0mm 0 W/m2
02:49 56.1 °F /  13.4 °C 53.8 °F /  12.1 °C 30.26in /  1024.6hPa WNW 0.5mph /  0.8km/h 3mph /  4.8km/h 92% 0.00in /  0mm 0 W/m2
02:54 56.2 °F /  13.4 °C 53.9 °F /  12.2 °C 30.26in /  1024.6hPa WNW 0.4mph /  0.6km/h 3mph /  4.8km/h 92% 0.00in /  0mm 0 W/m2
02:59 56.2 °F /  13.4 °C 53.9 °F /  12.2 °C 30.26in /  1024.6hPa WNW 0.2mph /  0.3km/h 2mph /  3.2km/h 92% 0.00in /  0mm 0 W/m2
03:04 56.2 °F /  13.4 °C 53.9 °F /  12.2 °C 30.26in /  1024.6hPa WNW 0.3mph /  0.5km/h 2mph /  3.2km/h 92% 0.00in /  0mm 0 W/m2
03:09 56.3 °F /  13.5 °C 54 °F /  12.2 °C 30.26in /  1024.6hPa WNW 0.2mph /  0.3km/h 2mph /  3.2km/h 92% 0.00in /  0mm 0 W/m2
03:14 56.2 °F /  13.4 °C 53.9 °F /  12.2 °C 30.26in /  1024.6hPa WNW 0.2mph /  0.3km/h 1mph /  1.6km/h 92% 0.00in /  0mm 0 W/m2
03:19 56.1 °F /  13.4 °C 53.8 °F /  12.1 °C 30.26in /  1024.6hPa WNW 0.3mph /  0.5km/h 2mph /  3.2km/h 92% 0.00in /  0mm 0 W/m2
03:24 56.1 °F /  13.4 °C 53.8 °F /  12.1 °C 30.26in /  1024.6hPa Calm   2mph /  3.2km/h 92% 0.00in /  0mm 0 W/m2
03:29 56.1 °F /  13.4 °C 53.8 °F /  12.1 °C 30.26in /  1024.6hPa Calm   1mph /  1.6km/h 92% 0.00in /  0mm 0 W/m2
03:34 56 °F /  13.3 °C 53.7 °F /  12.1 °C 30.27in /  1024.9hPa WNW 0.1mph /  0.2km/h 1mph /  1.6km/h 92% 0.00in /  0mm 0 W/m2
03:39 55.9 °F /  13.3 °C 53.6 °F /  12 °C 30.27in /  1024.9hPa WNW 0.6mph /  1km/h 2mph /  3.2km/h 92% 0.00in /  0mm 0 W/m2
03:44 55.9 °F /  13.3 °C 53.7 °F /  12.1 °C 30.27in /  1024.9hPa WNW 0.3mph /  0.5km/h 2mph /  3.2km/h 92.2% 0.00in /  0mm 0 W/m2
03:49 55.9 °F /  13.3 °C 53.8 °F /  12.1 °C 30.27in /  1024.9hPa WNW 0.4mph /  0.6km/h 3mph /  4.8km/h 92.5% 0.00in /  0mm 0 W/m2
03:54 55.9 °F /  13.3 °C 54 °F /  12.2 °C 30.27in /  1024.9hPa WNW 1.3mph /  2.1km/h 4mph /  6.4km/h 93% 0.00in /  0mm 0 W/m2
03:59 55.9 °F /  13.3 °C 54 °F /  12.2 °C 30.27in /  1024.9hPa WNW 0.5mph /  0.8km/h 2mph /  3.2km/h 93% 0.00in /  0mm 0 W/m2
04:04 55.9 °F /  13.3 °C 54 °F /  12.2 °C 30.27in /  1024.9hPa WNW 0.2mph /  0.3km/h 1mph /  1.6km/h 93% 0.00in /  0mm 0 W/m2
04:09 56.1 °F /  13.4 °C 54.1 °F /  12.3 °C 30.27in /  1024.9hPa WNW 0.5mph /  0.8km/h 2mph /  3.2km/h 93% 0.00in /  0mm 0 W/m2
04:14 56.1 °F /  13.4 °C 54.1 °F /  12.3 °C 30.27in /  1024.9hPa Calm     93% 0.00in /  0mm 0 W/m2
04:19 56.1 °F /  13.4 °C 53.9 °F /  12.2 °C 30.27in /  1024.9hPa Calm     92.3% 0.00in /  0mm 0 W/m2
04:24 56.1 °F /  13.4 °C 53.8 °F /  12.1 °C 30.27in /  1024.9hPa Calm   1mph /  1.6km/h 92% 0.00in /  0mm 0 W/m2
04:29 56.3 °F /  13.5 °C 54 °F /  12.2 °C 30.27in /  1024.9hPa Calm   1mph /  1.6km/h 92% 0.00in /  0mm 0 W/m2
04:34 56.3 °F /  13.5 °C 54 °F /  12.2 °C 30.27in /  1024.9hPa Calm   1mph /  1.6km/h 92% 0.00in /  0mm 0 W/m2
04:39 56.3 °F /  13.5 °C 54 °F /  12.2 °C 30.27in /  1024.9hPa WNW 0.4mph /  0.6km/h 2mph /  3.2km/h 92% 0.00in /  0mm 0 W/m2
04:44 56.5 °F /  13.6 °C 54.1 °F /  12.3 °C 30.27in /  1024.9hPa WNW 0.4mph /  0.6km/h 2mph /  3.2km/h 92% 0.00in /  0mm 0 W/m2
04:49 56.7 °F /  13.7 °C 54.3 °F /  12.4 °C 30.27in /  1024.9hPa WNW 0.2mph /  0.3km/h 2mph /  3.2km/h 92% 0.00in /  0mm 0 W/m2
04:54 56.7 °F /  13.7 °C 54.3 °F /  12.4 °C 30.27in /  1024.9hPa Calm   1mph /  1.6km/h 92% 0.00in /  0mm 0 W/m2
04:59 56.8 °F /  13.8 °C 54.4 °F /  12.4 °C 30.27in /  1024.9hPa WNW 0.5mph /  0.8km/h 3mph /  4.8km/h 92% 0.00in /  0mm 0 W/m2
05:04 56.8 °F /  13.8 °C 54.5 °F /  12.5 °C 30.27in /  1024.9hPa WNW 0.8mph /  1.3km/h 4mph /  6.4km/h 92% 0.00in /  0mm 0 W/m2
05:09 56.9 °F /  13.8 °C 54.6 °F /  12.6 °C 30.27in /  1024.9hPa WNW 0.6mph /  1km/h 3mph /  4.8km/h 92% 0.00in /  0mm 0 W/m2
05:14 57 °F /  13.9 °C 54.7 °F /  12.6 °C 30.27in /  1024.9hPa WNW 0.4mph /  0.6km/h 3mph /  4.8km/h 92% 0.00in /  0mm 0 W/m2
05:19 57.1 °F /  13.9 °C 54.8 °F /  12.7 °C 30.27in /  1024.9hPa WNW 0.4mph /  0.6km/h 2mph /  3.2km/h 92% 0.00in /  0mm 0 W/m2
05:24 57.2 °F /  14 °C 54.9 °F /  12.7 °C 30.27in /  1024.9hPa WNW 0.5mph /  0.8km/h 3mph /  4.8km/h 92% 0.00in /  0mm 0 W/m2
05:29 57.5 °F /  14.2 °C 55.1 °F /  12.8 °C 30.27in /  1024.9hPa WNW 2.4mph /  3.9km/h 5mph /  8km/h 92% 0.00in /  0mm 0 W/m2
05:34 57.7 °F /  14.3 °C 55.3 °F /  12.9 °C 30.27in /  1024.9hPa WNW 1.9mph /  3.1km/h 5mph /  8km/h 92% 0.00in /  0mm 0 W/m2
05:39 57.7 °F /  14.3 °C 55.4 °F /  13 °C 30.27in /  1024.9hPa WNW 1mph /  1.6km/h 4mph /  6.4km/h 92% 0.00in /  0mm 0 W/m2
05:44 57.9 °F /  14.4 °C 55.6 °F /  13.1 °C 30.27in /  1024.9hPa West 1.4mph /  2.3km/h 6mph /  9.7km/h 92% 0.00in /  0mm 0 W/m2
05:49 57.9 °F /  14.4 °C 55.6 °F /  13.1 °C 30.27in /  1024.9hPa West 0.6mph /  1km/h 2mph /  3.2km/h 92% 0.00in /  0mm 0 W/m2
05:54 58 °F /  14.4 °C 55.3 °F /  12.9 °C 30.28in /  1025.3hPa West 0.9mph /  1.4km/h 4mph /  6.4km/h 91.1% 0.00in /  0mm 0 W/m2
05:59 57.9 °F /  14.4 °C 55.2 °F /  12.9 °C 30.28in /  1025.3hPa West 1.8mph /  2.9km/h 5mph /  8km/h 91% 0.00in /  0mm 0 W/m2
06:04 57.9 °F /  14.4 °C 55.2 °F /  12.9 °C 30.28in /  1025.3hPa West 1.7mph /  2.7km/h 5mph /  8km/h 91% 0.00in /  0mm 0 W/m2
06:09 58 °F /  14.4 °C 55.3 °F /  12.9 °C 30.28in /  1025.3hPa West 2.4mph /  3.9km/h 6mph /  9.7km/h 91% 0.00in /  0mm 0 W/m2
06:14 58.1 °F /  14.5 °C 55.4 °F /  13 °C 30.28in /  1025.3hPa West 3.1mph /  5km/h 7mph /  11.3km/h 91% 0.00in /  0mm 0 W/m2
06:19 58.1 °F /  14.5 °C 55.4 °F /  13 °C 30.28in /  1025.3hPa WSW 1.9mph /  3.1km/h 7mph /  11.3km/h 90.9% 0.00in /  0mm 0 W/m2
06:24 58.1 °F /  14.5 °C 55.2 °F /  12.9 °C 30.28in /  1025.3hPa West 2.1mph /  3.4km/h 6mph /  9.7km/h 90% 0.00in /  0mm 0 W/m2
06:29 58.2 °F /  14.6 °C 55.4 °F /  13 °C 30.29in /  1025.6hPa WSW 2.1mph /  3.4km/h 6mph /  9.7km/h 90.2% 0.00in /  0mm 0 W/m2
06:34 58.3 °F /  14.6 °C 55.4 °F /  13 °C 30.29in /  1025.6hPa WSW 1.4mph /  2.3km/h 4mph /  6.4km/h 90% 0.00in /  0mm 0 W/m2
06:39 58.3 °F /  14.6 °C 55.4 °F /  13 °C 30.29in /  1025.6hPa WSW 2.3mph /  3.7km/h 5mph /  8km/h 90% 0.00in /  0mm 0 W/m2
06:44 58.3 °F /  14.6 °C 55.4 °F /  13 °C 30.29in /  1025.6hPa West 1.8mph /  2.9km/h 5mph /  8km/h 90% 0.00in /  0mm 0 W/m2
06:49 58.3 °F /  14.6 °C 55.5 °F /  13.1 °C 30.29in /  1025.6hPa West 1.5mph /  2.4km/h 5mph /  8km/h 90.1% 0.00in /  0mm 5 W/m2
06:54 58.3 °F /  14.6 °C 55.6 °F /  13.1 °C 30.29in /  1025.6hPa West 0.8mph /  1.3km/h 5mph /  8km/h 91% 0.00in /  0mm 7 W/m2
06:59 58.3 °F /  14.6 °C 55.6 °F /  13.1 °C 30.29in /  1025.6hPa WNW 1.5mph /  2.4km/h 4mph /  6.4km/h 91% 0.00in /  0mm 12 W/m2
07:04 58.3 °F /  14.6 °C 55.6 °F /  13.1 °C 30.29in /  1025.6hPa WNW 0.3mph /  0.5km/h 4mph /  6.4km/h 91% 0.00in /  0mm 14 W/m2
07:09 58.3 °F /  14.6 °C 55.6 °F /  13.1 °C 30.29in /  1025.6hPa WNW 0.4mph /  0.6km/h 2mph /  3.2km/h 91% 0.00in /  0mm 12 W/m2
07:14 58.3 °F /  14.6 °C 55.6 °F /  13.1 °C 30.29in /  1025.6hPa WNW 0.7mph /  1.1km/h 3mph /  4.8km/h 91% 0.00in /  0mm 16 W/m2
07:19 58.5 °F /  14.7 °C 55.8 °F /  13.2 °C 30.29in /  1025.6hPa WNW 0.3mph /  0.5km/h 2mph /  3.2km/h 91% 0.00in /  0mm 19 W/m2
07:24 58.5 °F /  14.7 °C 55.8 °F /  13.2 °C 30.29in /  1025.6hPa WNW 0.2mph /  0.3km/h 2mph /  3.2km/h 91% 0.00in /  0mm 39 W/m2
07:29 58.6 °F /  14.8 °C 55.9 °F /  13.3 °C 30.29in /  1025.6hPa Calm     91.1% 0.00in /  0mm 33 W/m2
07:34 58.6 °F /  14.8 °C 56.3 °F /  13.5 °C 30.30in /  1026hPa NW 0.3mph /  0.5km/h 1mph /  1.6km/h 92% 0.00in /  0mm 44 W/m2
07:39 58.8 °F /  14.9 °C 56.5 °F /  13.6 °C 30.30in /  1026hPa North 0.1mph /  0.2km/h 1mph /  1.6km/h 92% 0.00in /  0mm 44 W/m2
07:44 58.9 °F /  14.9 °C 56.6 °F /  13.7 °C 30.30in /  1026hPa North 0.5mph /  0.8km/h 2mph /  3.2km/h 92% 0.00in /  0mm 35 W/m2
07:49 59.1 °F /  15.1 °C 56.7 °F /  13.7 °C 30.30in /  1026hPa North 0.1mph /  0.2km/h 1mph /  1.6km/h 92% 0.00in /  0mm 37 W/m2
07:54 59.4 °F /  15.2 °C 57 °F /  13.9 °C 30.30in /  1026hPa West 2.1mph /  3.4km/h 6mph /  9.7km/h 92% 0.00in /  0mm 46 W/m2
07:59 59.6 °F /  15.3 °C 57.3 °F /  14.1 °C 30.30in /  1026hPa WSW 3.1mph /  5km/h 7mph /  11.3km/h 92% 0.00in /  0mm 60 W/m2
08:04 59.8 °F /  15.4 °C 57.5 °F /  14.2 °C 30.30in /  1026hPa WSW 2.2mph /  3.5km/h 7mph /  11.3km/h 92% 0.00in /  0mm 74 W/m2
08:09 59.9 °F /  15.5 °C 57.6 °F /  14.2 °C 30.30in /  1026hPa SW 2.4mph /  3.9km/h 7mph /  11.3km/h 92% 0.00in /  0mm 111 W/m2
08:14 60.2 °F /  15.7 °C 58.1 °F /  14.5 °C 30.30in /  1026hPa SW 3.4mph /  5.5km/h 6mph /  9.7km/h 92.7% 0.00in /  0mm 95 W/m2
08:19 60.3 °F /  15.7 °C 58.3 °F /  14.6 °C 30.30in /  1026hPa WSW 3.6mph /  5.8km/h 6mph /  9.7km/h 93% 0.00in /  0mm 104 W/m2
08:24 60.4 °F /  15.8 °C 58.5 °F /  14.7 °C 30.30in /  1026hPa SW 3.7mph /  6km/h 9mph /  14.5km/h 93% 0.00in /  0mm 120 W/m2
08:29 60.6 °F /  15.9 °C 58.6 °F /  14.8 °C 30.30in /  1026hPa WSW 3.5mph /  5.6km/h 10mph /  16.1km/h 93% 0.00in /  0mm 149 W/m2
08:34 60.9 °F /  16.1 °C 58.9 °F /  14.9 °C 30.30in /  1026hPa SW 4.8mph /  7.7km/h 9mph /  14.5km/h 93% 0.00in /  0mm 127 W/m2
08:39 61.1 °F /  16.2 °C 59.1 °F /  15.1 °C 30.31in /  1026.3hPa SW 6mph /  9.7km/h 12mph /  19.3km/h 93% 0.00in /  0mm 114 W/m2
08:44 61.2 °F /  16.2 °C 59.3 °F /  15.2 °C 30.31in /  1026.3hPa WSW 5.1mph /  8.2km/h 9mph /  14.5km/h 93% 0.00in /  0mm 123 W/m2
08:49 61.3 °F /  16.3 °C 59.4 °F /  15.2 °C 30.31in /  1026.3hPa WSW 4.9mph /  7.9km/h 12mph /  19.3km/h 93% 0.00in /  0mm 127 W/m2
08:54 61.4 °F /  16.3 °C 59.5 °F /  15.3 °C 30.31in /  1026.3hPa SW 6.2mph /  10km/h 12mph /  19.3km/h 93% 0.00in /  0mm 132 W/m2
08:59 61.6 °F /  16.4 °C 59.6 °F /  15.3 °C 30.31in /  1026.3hPa SW 6.9mph /  11.1km/h 12mph /  19.3km/h 93% 0.00in /  0mm 153 W/m2
09:04 61.9 °F /  16.6 °C 59.8 °F /  15.4 °C 30.32in /  1026.6hPa SW 6.3mph /  10.1km/h 12mph /  19.3km/h 92.9% 0.00in /  0mm 213 W/m2
09:09 62.2 °F /  16.8 °C 59.9 °F /  15.5 °C 30.32in /  1026.6hPa SW 4.8mph /  7.7km/h 11mph /  17.7km/h 92% 0.00in /  0mm 301 W/m2
09:14 62.5 °F /  16.9 °C 60.2 °F /  15.7 °C 30.32in /  1026.6hPa WSW 5.4mph /  8.7km/h 10mph /  16.1km/h 92% 0.00in /  0mm 301 W/m2
09:19 62.8 °F /  17.1 °C 60.2 °F /  15.7 °C 30.32in /  1026.6hPa WSW 6.5mph /  10.5km/h 12mph /  19.3km/h 91.1% 0.00in /  0mm 227 W/m2
09:24 63 °F /  17.2 °C 60.3 °F /  15.7 °C 30.32in /  1026.6hPa WSW 5.8mph /  9.3km/h 11mph /  17.7km/h 91% 0.00in /  0mm 220 W/m2
09:29 63.1 °F /  17.3 °C 60.1 °F /  15.6 °C 30.32in /  1026.6hPa WSW 5mph /  8km/h 9mph /  14.5km/h 90% 0.00in /  0mm 200 W/m2
09:34 63.2 °F /  17.3 °C 60.2 °F /  15.7 °C 30.32in /  1026.6hPa SW 6.1mph /  9.8km/h 11mph /  17.7km/h 90% 0.00in /  0mm 264 W/m2
09:39 63.4 °F /  17.4 °C 60.3 °F /  15.7 °C 30.32in /  1026.6hPa SW 4.8mph /  7.7km/h 10mph /  16.1km/h 89.3% 0.00in /  0mm 258 W/m2
09:44 63.8 °F /  17.7 °C 60.5 °F /  15.8 °C 30.32in /  1026.6hPa SW 6mph /  9.7km/h 10mph /  16.1km/h 89% 0.00in /  0mm 415 W/m2
09:49 64.1 °F /  17.8 °C 60.5 °F /  15.8 °C 30.33in /  1027hPa WSW 10.3mph /  16.6km/h 16mph /  25.7km/h 88.1% 0.00in /  0mm 378 W/m2
09:54 64.1 °F /  17.8 °C 60.2 °F /  15.7 °C 30.33in /  1027hPa SW 9.3mph /  15km/h 16mph /  25.7km/h 87.1% 0.00in /  0mm 244 W/m2
09:59 64.2 °F /  17.9 °C 60.3 °F /  15.7 °C 30.33in /  1027hPa WSW 6mph /  9.7km/h 12mph /  19.3km/h 87% 0.00in /  0mm 239 W/m2
10:04 64.3 °F /  17.9 °C 60.3 °F /  15.7 °C 30.33in /  1027hPa WSW 9.2mph /  14.8km/h 15mph /  24.1km/h 86.8% 0.00in /  0mm 278 W/m2
10:09 64.3 °F /  17.9 °C 60 °F /  15.6 °C 30.33in /  1027hPa WSW 7.2mph /  11.6km/h 15mph /  24.1km/h 86% 0.00in /  0mm 332 W/m2
10:14 64.6 °F /  18.1 °C 60.3 °F /  15.7 °C 30.33in /  1027hPa SW 7.9mph /  12.7km/h 13mph /  20.9km/h 86% 0.00in /  0mm 279 W/m2
10:19 64.5 °F /  18.1 °C 60.2 °F /  15.7 °C 30.33in /  1027hPa SW 7.5mph /  12.1km/h 12mph /  19.3km/h 86% 0.00in /  0mm 353 W/m2
10:24 64.3 °F /  17.9 °C 60 °F /  15.6 °C 30.34in /  1027.3hPa WSW 9.2mph /  14.8km/h 15mph /  24.1km/h 86% 0.00in /  0mm 436 W/m2
10:29 64.2 °F /  17.9 °C 60 °F /  15.6 °C 30.34in /  1027.3hPa WSW 7.5mph /  12.1km/h 13mph /  20.9km/h 86.2% 0.00in /  0mm 547 W/m2
10:34 64.7 °F /  18.2 °C 60.5 °F /  15.8 °C 30.34in /  1027.3hPa WSW 5.9mph /  9.5km/h 13mph /  20.9km/h 86.3% 0.00in /  0mm 547 W/m2
10:39 64.8 °F /  18.2 °C 60.5 °F /  15.8 °C 30.34in /  1027.3hPa WSW 7.6mph /  12.2km/h 15mph /  24.1km/h 86% 0.00in /  0mm 306 W/m2
10:44 64.6 °F /  18.1 °C 60.3 °F /  15.7 °C 30.34in /  1027.3hPa WSW 7.6mph /  12.2km/h 15mph /  24.1km/h 86% 0.00in /  0mm 638 W/m2
10:49 64.9 °F /  18.3 °C 60.1 °F /  15.6 °C 30.34in /  1027.3hPa WSW 10.1mph /  16.3km/h 15mph /  24.1km/h 84.7% 0.00in /  0mm 638 W/m2
10:54 65.5 °F /  18.6 °C 60.3 °F /  15.7 °C 30.34in /  1027.3hPa WSW 7mph /  11.3km/h 15mph /  24.1km/h 83.2% 0.00in /  0mm 564 W/m2
10:59 65.8 °F /  18.8 °C 60.2 °F /  15.7 °C 30.34in /  1027.3hPa West 7.4mph /  11.9km/h 15mph /  24.1km/h 81.8% 0.00in /  0mm 429 W/m2
11:04 66.1 °F /  18.9 °C 60.3 °F /  15.7 °C 30.34in /  1027.3hPa West 6.6mph /  10.6km/h 15mph /  24.1km/h 81.2% 0.00in /  0mm 279 W/m2
11:09 66.1 °F /  18.9 °C 60 °F /  15.6 °C 30.34in /  1027.3hPa WSW 8.1mph /  13km/h 15mph /  24.1km/h 80.4% 0.00in /  0mm 299 W/m2
11:14 66.1 °F /  18.9 °C 59.8 °F /  15.4 °C 30.34in /  1027.3hPa WSW 7.5mph /  12.1km/h 13mph /  20.9km/h 80.2% 0.00in /  0mm 295 W/m2
11:19 66.3 °F /  19.1 °C 60 °F /  15.6 °C 30.34in /  1027.3hPa WSW 8.3mph /  13.4km/h 14mph /  22.5km/h 80% 0.00in /  0mm 499 W/m2
11:24 66.7 °F /  19.3 °C 60.1 °F /  15.6 °C 30.34in /  1027.3hPa WSW 9.3mph /  15km/h 16mph /  25.7km/h 79.1% 0.00in /  0mm 401 W/m2
11:29 66.7 °F /  19.3 °C 59.7 °F /  15.4 °C 30.34in /  1027.3hPa WSW 8.8mph /  14.2km/h 16mph /  25.7km/h 78.1% 0.00in /  0mm 327 W/m2
11:34 66.7 °F /  19.3 °C 59.7 °F /  15.4 °C 30.34in /  1027.3hPa West 8.2mph /  13.2km/h 14mph /  22.5km/h 78% 0.00in /  0mm 221 W/m2
11:39 66.7 °F /  19.3 °C 59.7 °F /  15.4 °C 30.34in /  1027.3hPa SW 6.5mph /  10.5km/h 14mph /  22.5km/h 78% 0.00in /  0mm 172 W/m2
11:44 66.7 °F /  19.3 °C 59.7 °F /  15.4 °C 30.34in /  1027.3hPa WSW 5.9mph /  9.5km/h 13mph /  20.9km/h 78% 0.00in /  0mm 207 W/m2
11:49 66.9 °F /  19.4 °C 59.9 °F /  15.5 °C 30.34in /  1027.3hPa West 6.5mph /  10.5km/h 12mph /  19.3km/h 78% 0.00in /  0mm 269 W/m2
11:54 67 °F /  19.4 °C 60 °F /  15.6 °C 30.34in /  1027.3hPa WSW 6.8mph /  10.9km/h 15mph /  24.1km/h 78% 0.00in /  0mm 244 W/m2
11:59 66.9 °F /  19.4 °C 59.9 °F /  15.5 °C 30.34in /  1027.3hPa West 7.1mph /  11.4km/h 15mph /  24.1km/h 78% 0.00in /  0mm 144 W/m2
12:04 66.9 °F /  19.4 °C 59.9 °F /  15.5 °C 30.34in /  1027.3hPa West 6.9mph /  11.1km/h 14mph /  22.5km/h 78% 0.00in /  0mm 207 W/m2
12:09 66.7 °F /  19.3 °C 59.7 °F /  15.4 °C 30.34in /  1027.3hPa West 7.3mph /  11.7km/h 14mph /  22.5km/h 78% 0.00in /  0mm 174 W/m2
12:14 66.7 °F /  19.3 °C 59.7 °F /  15.4 °C 30.34in /  1027.3hPa WSW 8mph /  12.9km/h 14mph /  22.5km/h 78% 0.00in /  0mm 209 W/m2
12:19 66.7 °F /  19.3 °C 59.7 °F /  15.4 °C 30.34in /  1027.3hPa West 7.1mph /  11.4km/h 14mph /  22.5km/h 78% 0.00in /  0mm 232 W/m2
12:24 66.8 °F /  19.3 °C 59.8 °F /  15.4 °C 30.34in /  1027.3hPa WNW 7.3mph /  11.7km/h 13mph /  20.9km/h 78% 0.00in /  0mm 496 W/m2
12:29 67.5 °F /  19.7 °C 60.2 °F /  15.7 °C 30.34in /  1027.3hPa West 5.6mph /  9km/h 13mph /  20.9km/h 77.4% 0.00in /  0mm 387 W/m2
12:34 68.1 °F /  20.1 °C 60.3 °F /  15.7 °C 30.34in /  1027.3hPa WSW 7.1mph /  11.4km/h 13mph /  20.9km/h 76.6% 0.00in /  0mm 591 W/m2
12:39 68.5 °F /  20.3 °C 60.5 °F /  15.8 °C 30.34in /  1027.3hPa WSW 6.6mph /  10.6km/h 12mph /  19.3km/h 75.8% 0.00in /  0mm 591 W/m2
12:44 68.9 °F /  20.5 °C 60.3 °F /  15.7 °C 30.33in /  1027hPa WSW 6.1mph /  9.8km/h 12mph /  19.3km/h 74% 0.00in /  0mm 362 W/m2
12:49 69.4 °F /  20.8 °C 60.4 °F /  15.8 °C 30.33in /  1027hPa West 7.1mph /  11.4km/h 13mph /  20.9km/h 72.8% 0.00in /  0mm 930 W/m2
12:54 69.6 °F /  20.9 °C 60.4 °F /  15.8 °C 30.33in /  1027hPa WSW 8.6mph /  13.8km/h 15mph /  24.1km/h 72.3% 0.00in /  0mm 863 W/m2
12:59 69.3 °F /  20.7 °C 59.5 °F /  15.3 °C 30.33in /  1027hPa WSW 9.7mph /  15.6km/h 16mph /  25.7km/h 71% 0.00in /  0mm 837 W/m2
13:04 69.4 °F /  20.8 °C 59.7 °F /  15.4 °C 30.33in /  1027hPa West 8.4mph /  13.5km/h 15mph /  24.1km/h 71.3% 0.00in /  0mm 837 W/m2
13:09 70.3 °F /  21.3 °C 60.5 °F /  15.8 °C 30.33in /  1027hPa West 5.3mph /  8.5km/h 13mph /  20.9km/h 71% 0.00in /  0mm 821 W/m2
13:14 70.7 °F /  21.5 °C 60.3 °F /  15.7 °C 30.33in /  1027hPa West 8.1mph /  13km/h 15mph /  24.1km/h 69.8% 0.00in /  0mm 810 W/m2
13:19 70.4 °F /  21.3 °C 59.7 °F /  15.4 °C 30.34in /  1027.3hPa WSW 9.4mph /  15.1km/h 16mph /  25.7km/h 68.9% 0.00in /  0mm 726 W/m2
13:24 69.9 °F /  21.1 °C 59.4 °F /  15.2 °C 30.34in /  1027.3hPa West 8.9mph /  14.3km/h 14mph /  22.5km/h 69.4% 0.00in /  0mm 649 W/m2
13:29 69.3 °F /  20.7 °C 59.4 °F /  15.2 °C 30.33in /  1027hPa West 8.2mph /  13.2km/h 20mph /  32.2km/h 70.7% 0.00in /  0mm 292 W/m2
13:34 69.4 °F /  20.8 °C 59.7 °F /  15.4 °C 30.33in /  1027hPa WSW 6.5mph /  10.5km/h 20mph /  32.2km/h 71.3% 0.00in /  0mm 243 W/m2
13:39 69.5 °F /  20.8 °C 59.6 °F /  15.3 °C 30.33in /  1027hPa West 8.9mph /  14.3km/h 20mph /  32.2km/h 71% 0.00in /  0mm 737 W/m2
13:44 69.6 °F /  20.9 °C 59.7 °F /  15.4 °C 30.33in /  1027hPa WSW 8.2mph /  13.2km/h 20mph /  32.2km/h 71% 0.00in /  0mm 313 W/m2
13:49 69.6 °F /  20.9 °C 60.1 °F /  15.6 °C 30.33in /  1027hPa SW 8.6mph /  13.8km/h 16mph /  25.7km/h 71.8% 0.00in /  0mm 362 W/m2
13:54 69.5 °F /  20.8 °C 60.2 °F /  15.7 °C 30.33in /  1027hPa WSW 8.6mph /  13.8km/h 16mph /  25.7km/h 72% 0.00in /  0mm 459 W/m2
13:59 70 °F /  21.1 °C 60.5 °F /  15.8 °C 30.33in /  1027hPa WSW 8.1mph /  13km/h 15mph /  24.1km/h 71.8% 0.00in /  0mm 721 W/m2
14:04 70.4 °F /  21.3 °C 60.4 °F /  15.8 °C 30.32in /  1026.6hPa West 12.4mph /  20km/h 19mph /  30.6km/h 70.6% 0.00in /  0mm 703 W/m2
14:09 70.6 °F /  21.4 °C 60.4 °F /  15.8 °C 30.32in /  1026.6hPa West 9.6mph /  15.4km/h 18mph /  29km/h 70.1% 0.00in /  0mm 703 W/m2
14:14 70.8 °F /  21.6 °C 60.3 °F /  15.7 °C 30.32in /  1026.6hPa West 9.9mph /  15.9km/h 17mph /  27.4km/h 69.4% 0.00in /  0mm 691 W/m2
14:19 70.4 °F /  21.3 °C 60.1 °F /  15.6 °C 30.32in /  1026.6hPa West 8.9mph /  14.3km/h 15mph /  24.1km/h 69.6% 0.00in /  0mm 779 W/m2
14:24 70.3 °F /  21.3 °C 60.3 °F /  15.7 °C 30.32in /  1026.6hPa West 9.5mph /  15.3km/h 16mph /  25.7km/h 70.6% 0.00in /  0mm 805 W/m2
14:29 71 °F /  21.7 °C 60.9 °F /  16.1 °C 30.32in /  1026.6hPa West 7.1mph /  11.4km/h 16mph /  25.7km/h 70.3% 0.00in /  0mm 805 W/m2
14:34 71.3 °F /  21.8 °C 60.8 °F /  16 °C 30.32in /  1026.6hPa WSW 9.7mph /  15.6km/h 17mph /  27.4km/h 69.1% 0.00in /  0mm 559 W/m2
14:39 71.2 °F /  21.8 °C 60.6 °F /  15.9 °C 30.32in /  1026.6hPa West 8.5mph /  13.7km/h 17mph /  27.4km/h 69.2% 0.00in /  0mm 701 W/m2
14:44 70.9 °F /  21.6 °C 60.5 °F /  15.8 °C 30.32in /  1026.6hPa WNW 10mph /  16.1km/h 16mph /  25.7km/h 69.6% 0.00in /  0mm 694 W/m2
14:49 70.7 °F /  21.5 °C 60.8 °F /  16 °C 30.32in /  1026.6hPa WNW 10.3mph /  16.6km/h 15mph /  24.1km/h 70.8% 0.00in /  0mm 647 W/m2
14:54 70.4 °F /  21.3 °C 60.6 °F /  15.9 °C 30.32in /  1026.6hPa WNW 10.3mph /  16.6km/h 16mph /  25.7km/h 71.1% 0.00in /  0mm 638 W/m2
14:59 71 °F /  21.7 °C 61.3 °F /  16.3 °C 30.32in /  1026.6hPa West 6mph /  9.7km/h 14mph /  22.5km/h 71.6% 0.00in /  0mm 619 W/m2
15:04 71 °F /  21.7 °C 61.1 °F /  16.2 °C 30.32in /  1026.6hPa WNW 9.2mph /  14.8km/h 18mph /  29km/h 71.1% 0.00in /  0mm 638 W/m2
15:09 70.2 °F /  21.2 °C 60.8 °F /  16 °C 30.32in /  1026.6hPa WNW 8.7mph /  14km/h 18mph /  29km/h 72.4% 0.00in /  0mm 606 W/m2
15:14 70.2 °F /  21.2 °C 60.6 °F /  15.9 °C 30.32in /  1026.6hPa WNW 7.6mph /  12.2km/h 14mph /  22.5km/h 72% 0.00in /  0mm 575 W/m2
15:19 70.4 °F /  21.3 °C 60.5 °F /  15.8 °C 30.32in /  1026.6hPa West 10.8mph /  17.4km/h 16mph /  25.7km/h 71% 0.00in /  0mm 575 W/m2
15:24 70.3 °F /  21.3 °C 60.2 °F /  15.7 °C 30.32in /  1026.6hPa West 7.7mph /  12.4km/h 16mph /  25.7km/h 70.3% 0.00in /  0mm 592 W/m2
15:29 70.7 °F /  21.5 °C 60.3 °F /  15.7 °C 30.32in /  1026.6hPa West 9.7mph /  15.6km/h 15mph /  24.1km/h 69.6% 0.00in /  0mm 605 W/m2
15:34 70.2 °F /  21.2 °C 59.7 °F /  15.4 °C 30.32in /  1026.6hPa West 9.7mph /  15.6km/h 16mph /  25.7km/h 69.5% 0.00in /  0mm 571 W/m2
15:39 70.1 °F /  21.2 °C 59.4 °F /  15.2 °C 30.32in /  1026.6hPa West 10.5mph /  16.9km/h 17mph /  27.4km/h 68.9% 0.00in /  0mm 587 W/m2
15:44 69.9 °F /  21.1 °C 59.2 °F /  15.1 °C 30.32in /  1026.6hPa WNW 8.6mph /  13.8km/h 16mph /  25.7km/h 68.6% 0.00in /  0mm 584 W/m2
15:49 70 °F /  21.1 °C 59.2 °F /  15.1 °C 30.32in /  1026.6hPa West 8mph /  12.9km/h 17mph /  27.4km/h 68.7% 0.00in /  0mm 577 W/m2
15:54 70.6 °F /  21.4 °C 59.8 °F /  15.4 °C 30.32in /  1026.6hPa WNW 4.3mph /  6.9km/h 17mph /  27.4km/h 68.7% 0.00in /  0mm 526 W/m2
15:59 70.3 °F /  21.3 °C 59.2 °F /  15.1 °C 30.32in /  1026.6hPa WNW 8.9mph /  14.3km/h 17mph /  27.4km/h 67.8% 0.00in /  0mm 566 W/m2
16:04 70.1 °F /  21.2 °C 59.4 °F /  15.2 °C 30.32in /  1026.6hPa WNW 8.2mph /  13.2km/h 14mph /  22.5km/h 68.9% 0.00in /  0mm 566 W/m2
16:09 69.7 °F /  20.9 °C 59 °F /  15 °C 30.32in /  1026.6hPa WNW 10.7mph /  17.2km/h 20mph /  32.2km/h 68.8% 0.00in /  0mm 476 W/m2
16:14 69.6 °F /  20.9 °C 58.9 °F /  14.9 °C 30.32in /  1026.6hPa West 7.8mph /  12.6km/h 15mph /  24.1km/h 68.8% 0.00in /  0mm 466 W/m2
16:19 69.6 °F /  20.9 °C 59 °F /  15 °C 30.33in /  1027hPa WNW 10.7mph /  17.2km/h 19mph /  30.6km/h 69% 0.00in /  0mm 450 W/m2
16:24 69.3 °F /  20.7 °C 58.7 °F /  14.8 °C 30.33in /  1027hPa WNW 7.6mph /  12.2km/h 17mph /  27.4km/h 69.2% 0.00in /  0mm 439 W/m2
16:29 69.2 °F /  20.7 °C 58.6 °F /  14.8 °C 30.33in /  1027hPa WNW 8.5mph /  13.7km/h 15mph /  24.1km/h 69% 0.00in /  0mm 425 W/m2
16:34 68.9 °F /  20.5 °C 58.4 °F /  14.7 °C 30.33in /  1027hPa West 9mph /  14.5km/h 15mph /  24.1km/h 69.1% 0.00in /  0mm 417 W/m2
16:39 68.9 °F /  20.5 °C 58.6 °F /  14.8 °C 30.33in /  1027hPa WNW 7.9mph /  12.7km/h 15mph /  24.1km/h 70% 0.00in /  0mm 410 W/m2
16:44 68.6 °F /  20.3 °C 58.6 °F /  14.8 °C 30.33in /  1027hPa WNW 9.5mph /  15.3km/h 16mph /  25.7km/h 70.4% 0.00in /  0mm 397 W/m2
16:49 68.5 °F /  20.3 °C 58.6 °F /  14.8 °C 30.32in /  1026.6hPa WNW 9.3mph /  15km/h 18mph /  29km/h 70.6% 0.00in /  0mm 383 W/m2
16:54 68.4 °F /  20.2 °C 58.4 °F /  14.7 °C 30.32in /  1026.6hPa WNW 6.9mph /  11.1km/h 18mph /  29km/h 70.3% 0.00in /  0mm 367 W/m2
16:59 68.6 °F /  20.3 °C 58.9 °F /  14.9 °C 30.32in /  1026.6hPa WNW 6.7mph /  10.8km/h 15mph /  24.1km/h 71% 0.00in /  0mm 359 W/m2
17:04 68.8 °F /  20.4 °C 58.7 °F /  14.8 °C 30.32in /  1026.6hPa West 9.1mph /  14.6km/h 18mph /  29km/h 70.2% 0.00in /  0mm 348 W/m2
17:09 68.6 °F /  20.3 °C 58.5 °F /  14.7 °C 30.32in /  1026.6hPa WNW 8.2mph /  13.2km/h 14mph /  22.5km/h 70.1% 0.00in /  0mm 336 W/m2
17:14 68.6 °F /  20.3 °C 58.9 °F /  14.9 °C 30.32in /  1026.6hPa West 8.2mph /  13.2km/h 15mph /  24.1km/h 71% 0.00in /  0mm 323 W/m2
17:19 68.6 °F /  20.3 °C 58.9 °F /  14.9 °C 30.32in /  1026.6hPa WNW 7.9mph /  12.7km/h 15mph /  24.1km/h 71% 0.00in /  0mm 313 W/m2
17:24 68.4 °F /  20.2 °C 58.8 °F /  14.9 °C 30.32in /  1026.6hPa WNW 5.9mph /  9.5km/h 13mph /  20.9km/h 71.5% 0.00in /  0mm 299 W/m2
17:29 68.5 °F /  20.3 °C 59.2 °F /  15.1 °C 30.32in /  1026.6hPa West 6.9mph /  11.1km/h 15mph /  24.1km/h 71.9% 0.00in /  0mm 285 W/m2
17:34 68 °F /  20 °C 58.7 °F /  14.8 °C 30.33in /  1027hPa West 9.5mph /  15.3km/h 16mph /  25.7km/h 72% 0.00in /  0mm 202 W/m2
17:39 67.5 °F /  19.7 °C 58.5 °F /  14.7 °C 30.33in /  1027hPa West 9.1mph /  14.6km/h 16mph /  25.7km/h 73% 0.00in /  0mm 274 W/m2
17:44 67.2 °F /  19.6 °C 58.3 °F /  14.6 °C 30.33in /  1027hPa West 8.9mph /  14.3km/h 16mph /  25.7km/h 73.1% 0.00in /  0mm 79 W/m2
17:49 66.9 °F /  19.4 °C 58.3 °F /  14.6 °C 30.33in /  1027hPa WNW 8.1mph /  13km/h 15mph /  24.1km/h 74% 0.00in /  0mm 53 W/m2
17:54 66.7 °F /  19.3 °C 58.1 °F /  14.5 °C 30.33in /  1027hPa WNW 10.3mph /  16.6km/h 19mph /  30.6km/h 74% 0.00in /  0mm 65 W/m2
17:59 66.6 °F /  19.2 °C 58.1 °F /  14.5 °C 30.33in /  1027hPa WNW 8.6mph /  13.8km/h 19mph /  30.6km/h 74% 0.00in /  0mm 63 W/m2
18:04 66.6 °F /  19.2 °C 58.1 °F /  14.5 °C 30.33in /  1027hPa West 7.8mph /  12.6km/h 13mph /  20.9km/h 74% 0.00in /  0mm 46 W/m2
18:09 66.6 °F /  19.2 °C 58.1 °F /  14.5 °C 30.33in /  1027hPa WNW 4.8mph /  7.7km/h 12mph /  19.3km/h 74% 0.00in /  0mm 46 W/m2
18:14 66.3 °F /  19.1 °C 58 °F /  14.4 °C 30.33in /  1027hPa WNW 6.2mph /  10km/h 12mph /  19.3km/h 74.5% 0.00in /  0mm 39 W/m2
18:19 66.1 °F /  18.9 °C 58 °F /  14.4 °C 30.34in /  1027.3hPa WNW 6.6mph /  10.6km/h 11mph /  17.7km/h 75% 0.00in /  0mm 42 W/m2
18:24 65.8 °F /  18.8 °C 57.7 °F /  14.3 °C 30.34in /  1027.3hPa WNW 9.2mph /  14.8km/h 14mph /  22.5km/h 75% 0.00in /  0mm 33 W/m2
18:29 65.7 °F /  18.7 °C 57.6 °F /  14.2 °C 30.34in /  1027.3hPa WNW 5.7mph /  9.2km/h 14mph /  22.5km/h 75% 0.00in /  0mm 33 W/m2
18:34 65.7 °F /  18.7 °C 57.5 °F /  14.2 °C 30.34in /  1027.3hPa WNW 4.8mph /  7.7km/h 11mph /  17.7km/h 74.7% 0.00in /  0mm 30 W/m2
18:39 65.7 °F /  18.7 °C 57.5 °F /  14.2 °C 30.34in /  1027.3hPa WNW 6.2mph /  10km/h 11mph /  17.7km/h 74.7% 0.00in /  0mm 21 W/m2
18:44 65.5 °F /  18.6 °C 57.1 °F /  13.9 °C 30.34in /  1027.3hPa WNW 6.8mph /  10.9km/h 14mph /  22.5km/h 74.3% 0.00in /  0mm 18 W/m2
18:49 65.3 °F /  18.5 °C 56.9 °F /  13.8 °C 30.34in /  1027.3hPa WNW 7.5mph /  12.1km/h 13mph /  20.9km/h 74.3% 0.00in /  0mm 16 W/m2
18:54 65.3 °F /  18.5 °C 57.2 °F /  14 °C 30.34in /  1027.3hPa WNW 4.8mph /  7.7km/h 10mph /  16.1km/h 75% 0.00in /  0mm 14 W/m2
18:59 65.1 °F /  18.4 °C 57 °F /  13.9 °C 30.34in /  1027.3hPa WNW 5.1mph /  8.2km/h 9mph /  14.5km/h 75% 0.00in /  0mm 14 W/m2
19:04 64.9 °F /  18.3 °C 56.9 °F /  13.8 °C 30.34in /  1027.3hPa WNW 5.8mph /  9.3km/h 12mph /  19.3km/h 75.2% 0.00in /  0mm 14 W/m2
19:09 64.8 °F /  18.2 °C 57 °F /  13.9 °C 30.34in /  1027.3hPa WNW 6mph /  9.7km/h 11mph /  17.7km/h 76% 0.00in /  0mm 12 W/m2
19:14 64.5 °F /  18.1 °C 56.8 °F /  13.8 °C 30.34in /  1027.3hPa WNW 4.7mph /  7.6km/h 10mph /  16.1km/h 76.2% 0.00in /  0mm 5 W/m2
19:19 64.3 °F /  17.9 °C 56.9 °F /  13.8 °C 30.34in /  1027.3hPa WNW 5.7mph /  9.2km/h 10mph /  16.1km/h 77% 0.00in /  0mm 0 W/m2
19:24 64.1 °F /  17.8 °C 57.1 °F /  13.9 °C 30.34in /  1027.3hPa WNW 4.4mph /  7.1km/h 9mph /  14.5km/h 78% 0.00in /  0mm 0 W/m2
19:29 64 °F /  17.8 °C 57.1 °F /  13.9 °C 30.34in /  1027.3hPa WNW 3.8mph /  6.1km/h 11mph /  17.7km/h 78.5% 0.00in /  0mm 0 W/m2
19:34 63.9 °F /  17.7 °C 57.2 °F /  14 °C 30.35in /  1027.7hPa NW 3.8mph /  6.1km/h 8mph /  12.9km/h 79.1% 0.00in /  0mm 0 W/m2
19:39 63.8 °F /  17.7 °C 57.5 °F /  14.2 °C 30.35in /  1027.7hPa WNW 4.7mph /  7.6km/h 9mph /  14.5km/h 80% 0.00in /  0mm 0 W/m2
19:44 63.7 °F /  17.6 °C 57.4 °F /  14.1 °C 30.35in /  1027.7hPa WNW 3.2mph /  5.1km/h 7mph /  11.3km/h 80% 0.00in /  0mm 0 W/m2
19:49 63.7 °F /  17.6 °C 57.7 °F /  14.3 °C 30.35in /  1027.7hPa WNW 3.8mph /  6.1km/h 8mph /  12.9km/h 80.8% 0.00in /  0mm 0 W/m2
19:54 63.7 °F /  17.6 °C 57.6 °F /  14.2 °C 30.35in /  1027.7hPa WNW 4.2mph /  6.8km/h 8mph /  12.9km/h 80.6% 0.00in /  0mm 0 W/m2
19:59 63.7 °F /  17.6 °C 57.7 °F /  14.3 °C 30.35in /  1027.7hPa WNW 3.9mph /  6.3km/h 8mph /  12.9km/h 81% 0.00in /  0mm 0 W/m2
20:04 63.7 °F /  17.6 °C 57.7 °F /  14.3 °C 30.35in /  1027.7hPa West 4.6mph /  7.4km/h 8mph /  12.9km/h 81% 0.00in /  0mm 0 W/m2
20:09 63.7 °F /  17.6 °C 57.7 °F /  14.3 °C 30.36in /  1028hPa West 5.1mph /  8.2km/h 8mph /  12.9km/h 81% 0.00in /  0mm 0 W/m2
20:14 63.5 °F /  17.5 °C 57.8 °F /  14.3 °C 30.36in /  1028hPa WNW 4.6mph /  7.4km/h 8mph /  12.9km/h 81.5% 0.00in /  0mm 0 W/m2
20:19 63.5 °F /  17.5 °C 57.9 °F /  14.4 °C 30.36in /  1028hPa WNW 2.9mph /  4.7km/h 7mph /  11.3km/h 82% 0.00in /  0mm 0 W/m2
20:24 63.4 °F /  17.4 °C 58.1 °F /  14.5 °C 30.36in /  1028hPa WNW 3.7mph /  6km/h 8mph /  12.9km/h 82.8% 0.00in /  0mm 0 W/m2
20:29 63.1 °F /  17.3 °C 58 °F /  14.4 °C 30.37in /  1028.3hPa WNW 4.7mph /  7.6km/h 8mph /  12.9km/h 83.5% 0.00in /  0mm 0 W/m2
20:34 62.9 °F /  17.2 °C 58.2 °F /  14.6 °C 30.37in /  1028.3hPa West 3.3mph /  5.3km/h 8mph /  12.9km/h 84.6% 0.00in /  0mm 0 W/m2
20:39 62.6 °F /  17 °C 58.1 °F /  14.5 °C 30.37in /  1028.3hPa WNW 2.6mph /  4.2km/h 7mph /  11.3km/h 85% 0.00in /  0mm 0 W/m2
20:44 62.6 °F /  17 °C 58.3 °F /  14.6 °C 30.37in /  1028.3hPa WNW 2mph /  3.2km/h 4mph /  6.4km/h 85.9% 0.00in /  0mm 0 W/m2
20:49 62.5 °F /  16.9 °C 58.2 °F /  14.6 °C 30.37in /  1028.3hPa WNW 1.3mph /  2.1km/h 4mph /  6.4km/h 86% 0.00in /  0mm 0 W/m2
20:54 62.4 °F /  16.9 °C 58.5 °F /  14.7 °C 30.37in /  1028.3hPa West 2mph /  3.2km/h 6mph /  9.7km/h 87% 0.00in /  0mm 0 W/m2
20:59 62.4 °F /  16.9 °C 58.5 °F /  14.7 °C 30.37in /  1028.3hPa West 3.1mph /  5km/h 7mph /  11.3km/h 87% 0.00in /  0mm 0 W/m2
21:04 62.3 °F /  16.8 °C 58.5 °F /  14.7 °C 30.37in /  1028.3hPa WSW 2.9mph /  4.7km/h 7mph /  11.3km/h 87.3% 0.00in /  0mm 0 W/m2
21:09 62.4 °F /  16.9 °C 58.8 °F /  14.9 °C 30.37in /  1028.3hPa WSW 1.8mph /  2.9km/h 6mph /  9.7km/h 88% 0.00in /  0mm 0 W/m2
21:14 62.4 °F /  16.9 °C 58.8 °F /  14.9 °C 30.37in /  1028.3hPa WSW 2.1mph /  3.4km/h 6mph /  9.7km/h 88% 0.00in /  0mm 0 W/m2
21:19 62.3 °F /  16.8 °C 58.7 °F /  14.8 °C 30.37in /  1028.3hPa West 3mph /  4.8km/h 6mph /  9.7km/h 88% 0.00in /  0mm 0 W/m2
21:24 62.2 °F /  16.8 °C 58.6 °F /  14.8 °C 30.37in /  1028.3hPa West 2.6mph /  4.2km/h 7mph /  11.3km/h 88% 0.00in /  0mm 0 W/m2
21:29 62.2 °F /  16.8 °C 58.6 °F /  14.8 °C 30.37in /  1028.3hPa West 3mph /  4.8km/h 7mph /  11.3km/h 88% 0.00in /  0mm 0 W/m2
21:34 62.2 °F /  16.8 °C 58.8 °F /  14.9 °C 30.37in /  1028.3hPa West 4mph /  6.4km/h 9mph /  14.5km/h 88.5% 0.00in /  0mm 0 W/m2
21:39 62.1 °F /  16.7 °C 58.9 °F /  14.9 °C 30.37in /  1028.3hPa West 2.7mph /  4.3km/h 7mph /  11.3km/h 89% 0.00in /  0mm 0 W/m2
21:44 62.1 °F /  16.7 °C 58.9 °F /  14.9 °C 30.37in /  1028.3hPa WSW 1.9mph /  3.1km/h 5mph /  8km/h 89% 0.00in /  0mm 0 W/m2
21:49 62.1 °F /  16.7 °C 58.9 °F /  14.9 °C 30.38in /  1028.7hPa WSW 2.6mph /  4.2km/h 8mph /  12.9km/h 89.3% 0.00in /  0mm 0 W/m2
21:54 62 °F /  16.7 °C 59.1 °F /  15.1 °C 30.38in /  1028.7hPa WSW 2.8mph /  4.5km/h 5mph /  8km/h 90% 0.00in /  0mm 0 W/m2
21:59 61.8 °F /  16.6 °C 58.9 °F /  14.9 °C 30.38in /  1028.7hPa WSW 2.5mph /  4km/h 6mph /  9.7km/h 90% 0.00in /  0mm 0 W/m2
22:04 61.7 °F /  16.5 °C 58.8 °F /  14.9 °C 30.38in /  1028.7hPa WSW 2.3mph /  3.7km/h 5mph /  8km/h 90% 0.00in /  0mm 0 W/m2
22:09 61.7 °F /  16.5 °C 58.9 °F /  14.9 °C 30.38in /  1028.7hPa WSW 1.8mph /  2.9km/h 4mph /  6.4km/h 90.8% 0.00in /  0mm 0 W/m2
22:14 61.5 °F /  16.4 °C 58.8 °F /  14.9 °C 30.38in /  1028.7hPa WSW 2.1mph /  3.4km/h 5mph /  8km/h 91% 0.00in /  0mm 0 W/m2
22:19 61.5 °F /  16.4 °C 58.8 °F /  14.9 °C 30.38in /  1028.7hPa WSW 3.4mph /  5.5km/h 6mph /  9.7km/h 91% 0.00in /  0mm 0 W/m2
22:24 61.5 °F /  16.4 °C 58.8 °F /  14.9 °C 30.38in /  1028.7hPa West 1.8mph /  2.9km/h 6mph /  9.7km/h 91% 0.00in /  0mm 0 W/m2
22:29 61.5 °F /  16.4 °C 59 °F /  15 °C 30.38in /  1028.7hPa West 1.2mph /  1.9km/h 5mph /  8km/h 91.6% 0.00in /  0mm 0 W/m2
22:34 61.4 °F /  16.3 °C 59.1 °F /  15.1 °C 30.38in /  1028.7hPa West 1.6mph /  2.6km/h 5mph /  8km/h 92% 0.00in /  0mm 0 W/m2
22:39 61.5 °F /  16.4 °C 59.2 °F /  15.1 °C 30.39in /  1029hPa West 0.8mph /  1.3km/h 4mph /  6.4km/h 92% 0.00in /  0mm 0 W/m2
22:44 61.3 °F /  16.3 °C 59 °F /  15 °C 30.39in /  1029hPa West 1.7mph /  2.7km/h 5mph /  8km/h 92% 0.00in /  0mm 0 W/m2
22:49 61.3 °F /  16.3 °C 59 °F /  15 °C 30.39in /  1029hPa West 2mph /  3.2km/h 5mph /  8km/h 92% 0.00in /  0mm 0 W/m2
22:54 61.3 °F /  16.3 °C 59 °F /  15 °C 30.39in /  1029hPa West 2mph /  3.2km/h 6mph /  9.7km/h 92% 0.00in /  0mm 0 W/m2
22:59 61.4 °F /  16.3 °C 59.1 °F /  15.1 °C 30.39in /  1029hPa West 2.9mph /  4.7km/h 6mph /  9.7km/h 92% 0.00in /  0mm 0 W/m2
23:04 61.4 °F /  16.3 °C 59.1 °F /  15.1 °C 30.39in /  1029hPa West 1.8mph /  2.9km/h 5mph /  8km/h 92% 0.00in /  0mm 0 W/m2
23:09 61.5 °F /  16.4 °C 59.4 °F /  15.2 °C 30.39in /  1029hPa West 2mph /  3.2km/h 6mph /  9.7km/h 92.7% 0.00in /  0mm 0 W/m2
23:14 61.5 °F /  16.4 °C 59.5 °F /  15.3 °C 30.39in /  1029hPa West 2.1mph /  3.4km/h 6mph /  9.7km/h 93% 0.00in /  0mm 0 W/m2
23:19 61.5 °F /  16.4 °C 59.5 °F /  15.3 °C 30.39in /  1029hPa West 1.6mph /  2.6km/h 5mph /  8km/h 93% 0.00in /  0mm 0 W/m2
23:24 61.5 °F /  16.4 °C 59.5 °F /  15.3 °C 30.39in /  1029hPa West 2.7mph /  4.3km/h 6mph /  9.7km/h 93% 0.00in /  0mm 0 W/m2
23:29 61.5 °F /  16.4 °C 59.5 °F /  15.3 °C 30.39in /  1029hPa West 3.1mph /  5km/h 7mph /  11.3km/h 93% 0.00in /  0mm 0 W/m2
23:34 61.5 °F /  16.4 °C 59.5 °F /  15.3 °C 30.39in /  1029hPa WNW 1.1mph /  1.8km/h 7mph /  11.3km/h 93% 0.01in /  0.25mm 0 W/m2
23:39 61.5 °F /  16.4 °C 59.5 °F /  15.3 °C 30.39in /  1029hPa WNW 2.6mph /  4.2km/h 5mph /  8km/h 93% 0.01in /  0.25mm 0 W/m2
23:44 61.5 °F /  16.4 °C 59.5 °F /  15.3 °C 30.39in /  1029hPa WNW 1.8mph /  2.9km/h 4mph /  6.4km/h 93% 0.01in /  0.25mm 0 W/m2
23:49 61.5 °F /  16.4 °C 59.5 °F /  15.3 °C 30.39in /  1029hPa WNW 0.8mph /  1.3km/h 3mph /  4.8km/h 93% 0.01in /  0.25mm 0 W/m2
23:54 61.5 °F /  16.4 °C 59.5 °F /  15.3 °C 30.39in /  1029hPa WNW 0.3mph /  0.5km/h 2mph /  3.2km/h 93.2% 0.01in /  0.25mm 0 W/m2
23:59 61.5 °F /  16.4 °C 59.7 °F /  15.4 °C 30.39in /  1029hPa WNW 0.6mph /  1km/h 4mph /  6.4km/h 94% 0.01in /  0.25mm 0 W/m2
Bath Spa Weather
Compliments of Weather Underground - 2 mb